createdAt,value
2019-06-08T00:00:59.883Z,21.15
2019-06-08T00:02:04.116Z,21.12
2019-06-08T00:03:07.979Z,21.11
2019-06-08T00:04:12.934Z,21.10
2019-06-08T00:05:16.951Z,21.09
2019-06-08T00:06:23.229Z,21.07
2019-06-08T00:07:26.790Z,21.09
2019-06-08T00:08:31.010Z,21.04
2019-06-08T00:09:34.726Z,21.01
2019-06-08T00:10:38.915Z,20.98
2019-06-08T00:11:42.543Z,20.96
2019-06-08T00:12:46.702Z,20.96
2019-06-08T00:13:50.331Z,20.96
2019-06-08T00:14:54.561Z,20.93
2019-06-08T00:15:58.165Z,20.88
2019-06-08T00:17:02.327Z,20.84
2019-06-08T00:18:05.947Z,20.78
2019-06-08T00:19:10.086Z,20.78
2019-06-08T00:20:15.759Z,20.74
2019-06-08T00:21:20.223Z,20.70
2019-06-08T00:22:24.004Z,20.69
2019-06-08T00:23:28.102Z,20.68
2019-06-08T00:24:31.983Z,20.68
2019-06-08T00:25:36.190Z,20.70
2019-06-08T00:26:39.714Z,20.70
2019-06-08T00:27:43.810Z,20.68
2019-06-08T00:28:47.358Z,20.68
2019-06-08T00:29:51.521Z,20.66
2019-06-08T00:30:55.030Z,20.63
2019-06-08T00:31:59.196Z,20.63
2019-06-08T00:33:02.822Z,20.62
2019-06-08T00:34:07.383Z,20.61
2019-06-08T00:35:11.118Z,20.61
2019-06-08T00:36:15.185Z,20.63
2019-06-08T00:37:18.862Z,20.62
2019-06-08T00:38:23.094Z,20.61
2019-06-08T00:39:26.734Z,20.61
2019-06-08T00:40:31.017Z,20.59
2019-06-08T00:41:34.654Z,20.56
2019-06-08T00:42:38.759Z,20.54
2019-06-08T00:43:42.320Z,20.49
2019-06-08T00:44:46.479Z,20.47
2019-06-08T00:45:50.108Z,20.44
2019-06-08T00:46:54.338Z,20.44
2019-06-08T00:47:58.004Z,20.40
2019-06-08T00:49:02.207Z,20.40
2019-06-08T00:50:06.950Z,20.41
2019-06-08T00:51:11.279Z,20.41
2019-06-08T00:52:15.292Z,20.41
2019-06-08T00:53:20.134Z,20.41
2019-06-08T00:54:25.808Z,20.38
2019-06-08T00:55:30.075Z,20.36
2019-06-08T00:56:33.617Z,20.34
2019-06-08T00:57:37.852Z,20.34
2019-06-08T00:58:41.461Z,20.33
2019-06-08T00:59:45.530Z,20.27
2019-06-08T01:00:49.152Z,20.20
2019-06-08T01:01:53.370Z,20.17
2019-06-08T01:02:57.007Z,20.14
2019-06-08T01:04:01.248Z,20.16
2019-06-08T01:05:07.080Z,20.18
2019-06-08T01:06:11.335Z,20.19
2019-06-08T01:07:14.974Z,20.20
2019-06-08T01:08:20.677Z,20.19
2019-06-08T01:09:24.584Z,20.14
2019-06-08T01:10:29.706Z,20.13
2019-06-08T01:11:33.408Z,20.14
2019-06-08T01:12:37.635Z,20.13
2019-06-08T01:13:41.257Z,20.12
2019-06-08T01:14:45.864Z,20.12
2019-06-08T01:15:49.502Z,20.11
2019-06-08T01:16:53.696Z,20.11
2019-06-08T01:18:02.667Z,20.12
2019-06-08T01:19:03.269Z,20.11
2019-06-08T01:20:08.031Z,20.10
2019-06-08T01:21:12.100Z,20.10
2019-06-08T01:22:15.638Z,20.10
2019-06-08T01:23:19.870Z,20.11
2019-06-08T01:24:23.705Z,20.09
2019-06-08T01:25:28.430Z,20.05
2019-06-08T01:26:32.059Z,20.05
2019-06-08T01:27:36.323Z,20.05
2019-06-08T01:28:39.886Z,20.04
2019-06-08T01:29:44.554Z,20.00
2019-06-08T01:30:48.193Z,19.96
2019-06-08T01:31:52.288Z,19.95
2019-06-08T01:32:56.228Z,19.91
2019-06-08T01:34:00.465Z,19.89
2019-06-08T01:35:04.710Z,19.88
2019-06-08T01:36:09.094Z,19.88
2019-06-08T01:37:12.678Z,19.83
2019-06-08T01:38:16.858Z,19.81
2019-06-08T01:39:21.119Z,19.80
2019-06-08T01:40:25.906Z,19.79
2019-06-08T01:41:29.710Z,19.75
2019-06-08T01:42:33.838Z,19.72
2019-06-08T01:43:37.424Z,19.71
2019-06-08T01:44:41.691Z,19.71
2019-06-08T01:45:45.315Z,19.71
2019-06-08T01:46:49.482Z,19.70
2019-06-08T01:47:53.037Z,19.69
2019-06-08T01:48:57.286Z,19.68
2019-06-08T01:50:00.949Z,19.66
2019-06-08T01:51:05.990Z,19.64
2019-06-08T01:52:09.594Z,19.64
2019-06-08T01:53:14.137Z,19.62
2019-06-08T01:54:17.722Z,19.61
2019-06-08T01:55:23.003Z,19.63
2019-06-08T01:56:27.091Z,19.62
2019-06-08T01:57:31.594Z,19.62
2019-06-08T01:58:35.346Z,19.61
2019-06-08T01:59:39.570Z,19.59
2019-06-08T02:00:43.198Z,19.59
2019-06-08T02:01:47.469Z,19.57
2019-06-08T02:02:51.392Z,19.58
2019-06-08T02:03:55.545Z,19.59
2019-06-08T02:04:59.345Z,19.58
2019-06-08T02:06:03.741Z,19.56
2019-06-08T02:07:07.438Z,19.56
2019-06-08T02:08:11.672Z,19.55
2019-06-08T02:09:15.305Z,19.54
2019-06-08T02:10:21.335Z,19.55
2019-06-08T02:11:24.920Z,19.53
2019-06-08T02:12:29.100Z,19.51
2019-06-08T02:13:33.147Z,19.51
2019-06-08T02:14:37.473Z,19.51
2019-06-08T02:15:41.121Z,19.48
2019-06-08T02:16:45.262Z,19.49
2019-06-08T02:17:48.944Z,19.47
2019-06-08T02:18:53.159Z,19.45
2019-06-08T02:19:56.641Z,19.38
2019-06-08T02:21:00.881Z,19.39
2019-06-08T02:22:04.604Z,19.39
2019-06-08T02:23:08.855Z,19.36
2019-06-08T02:24:12.488Z,19.36
2019-06-08T02:25:18.331Z,19.37
2019-06-08T02:26:21.958Z,19.37
2019-06-08T02:27:27.243Z,19.36
2019-06-08T02:28:31.562Z,19.31
2019-06-08T02:29:35.879Z,19.30
2019-06-08T02:30:41.966Z,19.31
2019-06-08T02:31:47.981Z,19.31
2019-06-08T02:32:50.736Z,19.30
2019-06-08T02:33:54.986Z,19.30
2019-06-08T02:34:58.887Z,19.30
2019-06-08T02:36:02.842Z,19.28
2019-06-08T02:37:06.467Z,19.27
2019-06-08T02:38:10.698Z,19.28
2019-06-08T02:39:14.385Z,19.26
2019-06-08T02:40:19.009Z,19.24
2019-06-08T02:41:22.605Z,19.23
2019-06-08T02:42:28.511Z,19.21
2019-06-08T02:43:33.344Z,19.20
2019-06-08T02:44:37.737Z,19.20
2019-06-08T02:45:41.938Z,19.18
2019-06-08T02:46:46.109Z,19.18
2019-06-08T02:47:49.734Z,19.15
2019-06-08T02:49:03.331Z,19.15
2019-06-08T02:49:59.263Z,19.15
2019-06-08T02:51:03.990Z,19.13
2019-06-08T02:52:07.636Z,19.12
2019-06-08T02:53:12.562Z,19.13
2019-06-08T02:54:16.485Z,19.11
2019-06-08T02:55:20.679Z,19.10
2019-06-08T02:56:25.218Z,19.12
2019-06-08T02:57:33.207Z,19.13
2019-06-08T02:58:40.352Z,19.14
2019-06-08T02:59:44.554Z,19.14
2019-06-08T03:00:50.069Z,19.11
2019-06-08T03:01:56.524Z,19.09
2019-06-08T03:03:01.147Z,19.09
2019-06-08T03:04:05.702Z,19.08
2019-06-08T03:05:09.546Z,19.07
2019-06-08T03:06:16.165Z,19.06
2019-06-08T03:07:22.498Z,19.04
2019-06-08T03:08:29.390Z,19.00
2019-06-08T03:09:34.779Z,19.01
2019-06-08T03:10:41.361Z,19.02
2019-06-08T03:11:47.032Z,18.98
2019-06-08T03:12:53.205Z,18.98
2019-06-08T03:13:58.296Z,18.97
2019-06-08T03:15:04.497Z,18.95
2019-06-08T03:16:08.110Z,18.94
2019-06-08T03:17:12.317Z,18.93
2019-06-08T03:18:16.157Z,18.93
2019-06-08T03:19:22.668Z,18.84
2019-06-08T03:20:25.911Z,18.87
2019-06-08T03:21:31.389Z,18.87
2019-06-08T03:22:37.156Z,18.90
2019-06-08T03:23:42.915Z,18.89
2019-06-08T03:24:46.398Z,18.87
2019-06-08T03:25:52.878Z,18.87
2019-06-08T03:26:56.265Z,18.88
2019-06-08T03:28:00.337Z,18.89
2019-06-08T03:29:03.987Z,18.89
2019-06-08T03:30:17.639Z,18.85
2019-06-08T03:31:16.697Z,18.81
2019-06-08T03:32:20.861Z,18.80
2019-06-08T03:33:24.498Z,18.79
2019-06-08T03:34:28.644Z,18.81
2019-06-08T03:35:34.880Z,18.81
2019-06-08T03:36:43.860Z,18.82
2019-06-08T03:37:44.432Z,18.83
2019-06-08T03:38:48.808Z,18.84
2019-06-08T03:39:52.307Z,18.85
2019-06-08T03:40:56.545Z,18.83
2019-06-08T03:42:00.237Z,18.83
2019-06-08T03:43:04.441Z,18.82
2019-06-08T03:44:08.069Z,18.84
2019-06-08T03:45:12.704Z,18.86
2019-06-08T03:46:16.351Z,18.85
2019-06-08T03:47:20.589Z,18.84
2019-06-08T03:48:24.604Z,18.83
2019-06-08T03:49:41.305Z,18.84
2019-06-08T03:50:35.532Z,18.85
2019-06-08T03:51:43.632Z,18.86
2019-06-08T03:52:46.275Z,18.88
2019-06-08T03:53:50.706Z,18.86
2019-06-08T03:54:54.718Z,18.85
2019-06-08T03:55:58.856Z,18.83
2019-06-08T03:57:02.426Z,18.84
2019-06-08T03:58:06.790Z,18.84
2019-06-08T03:59:10.351Z,18.86
2019-06-08T04:00:15.362Z,18.87
2019-06-08T04:01:19.115Z,18.89
2019-06-08T04:02:23.314Z,18.90
2019-06-08T04:03:26.935Z,18.92
2019-06-08T04:04:31.147Z,18.93
2019-06-08T04:05:34.757Z,18.95
2019-06-08T04:06:39.875Z,18.96
2019-06-08T04:07:45.882Z,18.95
2019-06-08T04:08:50.018Z,18.94
2019-06-08T04:09:53.695Z,18.87
2019-06-08T04:10:57.817Z,18.87
2019-06-08T04:12:01.568Z,18.89
2019-06-08T04:13:05.771Z,18.87
2019-06-08T04:14:09.457Z,18.87
2019-06-08T04:15:14.181Z,18.88
2019-06-08T04:16:19.387Z,18.91
2019-06-08T04:17:23.831Z,18.95
2019-06-08T04:18:27.477Z,18.95
2019-06-08T04:19:31.659Z,18.95
2019-06-08T04:20:35.311Z,18.98
2019-06-08T04:21:40.263Z,19.02
2019-06-08T04:22:47.121Z,19.07
2019-06-08T04:23:51.612Z,19.15
2019-06-08T04:24:55.308Z,19.20
2019-06-08T04:25:59.454Z,19.19
2019-06-08T04:27:03.015Z,19.20
2019-06-08T04:28:07.399Z,19.21
2019-06-08T04:29:10.971Z,19.23
2019-06-08T04:30:15.904Z,19.25
2019-06-08T04:31:19.512Z,19.27
2019-06-08T04:32:23.717Z,19.30
2019-06-08T04:33:27.346Z,19.32
2019-06-08T04:34:31.493Z,19.35
2019-06-08T04:35:35.365Z,19.37
2019-06-08T04:36:41.239Z,19.35
2019-06-08T04:37:47.000Z,19.36
2019-06-08T04:38:51.384Z,19.39
2019-06-08T04:39:54.957Z,19.41
2019-06-08T04:40:59.047Z,19.37
2019-06-08T04:42:02.713Z,19.34
2019-06-08T04:43:07.015Z,19.32
2019-06-08T04:44:10.644Z,19.34
2019-06-08T04:45:15.261Z,19.35
2019-06-08T04:46:18.883Z,19.39
2019-06-08T04:47:23.209Z,19.42
2019-06-08T04:48:26.846Z,19.47
2019-06-08T04:49:31.125Z,19.47
2019-06-08T04:50:34.753Z,19.51
2019-06-08T04:51:40.608Z,19.53
2019-06-08T04:52:44.998Z,19.57
2019-06-08T04:53:49.907Z,19.53
2019-06-08T04:54:53.608Z,19.49
2019-06-08T04:56:01.242Z,19.49
2019-06-08T04:57:04.895Z,19.54
2019-06-08T04:58:09.080Z,19.58
2019-06-08T04:59:12.711Z,19.58
2019-06-08T05:00:17.127Z,19.57
2019-06-08T05:01:20.745Z,19.60
2019-06-08T05:02:24.854Z,19.67
2019-06-08T05:03:28.454Z,19.70
2019-06-08T05:04:32.620Z,19.72
2019-06-08T05:05:36.750Z,19.75
2019-06-08T05:06:41.070Z,19.77
2019-06-08T05:07:46.443Z,19.78
2019-06-08T05:08:53.572Z,19.76
2019-06-08T05:09:58.780Z,19.77
2019-06-08T05:11:04.016Z,19.74
2019-06-08T05:12:07.707Z,19.73
2019-06-08T05:13:11.933Z,19.78
2019-06-08T05:14:15.819Z,19.82
2019-06-08T05:15:20.030Z,19.86
2019-06-08T05:16:23.688Z,19.82
2019-06-08T05:17:27.843Z,19.84
2019-06-08T05:18:31.399Z,19.86
2019-06-08T05:19:35.796Z,19.76
2019-06-08T05:20:42.090Z,19.71
2019-06-08T05:21:45.519Z,19.75
2019-06-08T05:22:49.794Z,19.80
2019-06-08T05:23:58.586Z,19.80
2019-06-08T05:24:59.715Z,19.86
2019-06-08T05:26:03.794Z,19.85
2019-06-08T05:27:07.437Z,19.85
2019-06-08T05:28:11.649Z,19.85
2019-06-08T05:29:15.295Z,19.87
2019-06-08T05:30:20.315Z,19.89
2019-06-08T05:31:23.965Z,19.89
2019-06-08T05:32:28.531Z,19.86
2019-06-08T05:33:32.100Z,19.84
2019-06-08T05:34:36.204Z,19.89
2019-06-08T05:35:39.872Z,19.94
2019-06-08T05:36:45.389Z,19.94
2019-06-08T05:37:49.798Z,20.00
2019-06-08T05:38:53.980Z,20.04
2019-06-08T05:39:57.620Z,20.07
2019-06-08T05:41:01.815Z,20.06
2019-06-08T05:42:05.563Z,20.06
2019-06-08T05:43:09.705Z,20.11
2019-06-08T05:44:15.556Z,20.18
2019-06-08T05:45:19.805Z,20.20
2019-06-08T05:46:23.494Z,20.23
2019-06-08T05:47:27.642Z,20.20
2019-06-08T05:48:31.169Z,20.27
2019-06-08T05:49:35.450Z,20.30
2019-06-08T05:50:55.899Z,20.35
2019-06-08T05:51:45.832Z,20.40
2019-06-08T05:52:50.340Z,20.46
2019-06-08T05:53:54.614Z,20.50
2019-06-08T05:54:58.181Z,20.50
2019-06-08T05:56:02.320Z,20.55
2019-06-08T05:57:05.984Z,20.58
2019-06-08T05:58:10.216Z,20.61
2019-06-08T05:59:14.200Z,20.60
2019-06-08T06:00:18.815Z,20.58
2019-06-08T06:01:22.446Z,20.62
2019-06-08T06:02:27.317Z,20.66
2019-06-08T06:03:30.937Z,20.70
2019-06-08T06:04:36.211Z,20.74
2019-06-08T06:05:40.245Z,20.76
2019-06-08T06:06:44.635Z,20.74
2019-06-08T06:07:49.034Z,20.70
2019-06-08T06:08:54.417Z,20.73
2019-06-08T06:10:02.264Z,20.89
2019-06-08T06:11:06.490Z,20.95
2019-06-08T06:12:20.982Z,20.99
2019-06-08T06:13:25.192Z,21.13
2019-06-08T06:14:31.631Z,21.29
2019-06-08T06:15:35.885Z,21.38
2019-06-08T06:16:40.877Z,21.48
2019-06-08T06:17:48.431Z,21.55
2019-06-08T06:18:52.790Z,21.69
2019-06-08T06:19:57.010Z,21.76
2019-06-08T06:21:10.958Z,21.82
2019-06-08T06:22:08.544Z,21.89
2019-06-08T06:23:12.220Z,21.96
2019-06-08T06:24:16.461Z,22.04
2019-06-08T06:25:20.055Z,22.16
2019-06-08T06:26:24.283Z,22.25
2019-06-08T06:27:28.292Z,22.34
2019-06-08T06:28:32.549Z,22.40
2019-06-08T06:29:36.202Z,22.48
2019-06-08T06:30:41.571Z,22.64
2019-06-08T06:32:14.384Z,22.75
2019-06-08T06:33:18.402Z,22.76
2019-06-08T06:34:22.081Z,22.78
2019-06-08T06:35:26.292Z,22.88
2019-06-08T06:36:29.868Z,22.90
2019-06-08T06:37:34.132Z,22.95
2019-06-08T06:38:37.700Z,23.02
2019-06-08T06:39:42.017Z,23.11
2019-06-08T06:40:45.959Z,23.16
2019-06-08T06:41:50.211Z,23.27
2019-06-08T06:42:56.652Z,23.38
2019-06-08T06:44:02.396Z,23.53
2019-06-08T06:45:15.115Z,23.61
2019-06-08T06:46:23.697Z,23.66
2019-06-08T06:47:27.256Z,23.75
2019-06-08T06:48:31.487Z,23.86
2019-06-08T06:49:35.562Z,23.89
2019-06-08T06:50:39.852Z,24.03
2019-06-08T06:51:44.386Z,24.08
2019-06-08T06:52:48.985Z,24.18
2019-06-08T06:53:53.315Z,24.30
2019-06-08T06:54:57.668Z,24.42
2019-06-08T06:56:01.298Z,24.47
2019-06-08T06:57:05.593Z,24.48
2019-06-08T06:58:09.064Z,24.49
2019-06-08T06:59:14.293Z,24.56
2019-06-08T07:00:20.816Z,24.61
2019-06-08T07:01:25.053Z,24.67
2019-06-08T07:02:29.528Z,24.69
2019-06-08T07:03:33.760Z,24.76
2019-06-08T07:04:37.425Z,24.83
2019-06-08T07:05:41.637Z,24.87
2019-06-08T07:06:48.020Z,24.96
2019-06-08T07:07:52.477Z,25.08
2019-06-08T07:08:56.127Z,25.16
2019-06-08T07:10:00.354Z,25.22
2019-06-08T07:11:03.979Z,25.16
2019-06-08T07:12:08.205Z,24.96
2019-06-08T07:13:11.872Z,25.00
2019-06-08T07:14:16.079Z,25.04
2019-06-08T07:15:27.664Z,25.16
2019-06-08T07:16:31.878Z,25.32
2019-06-08T07:17:35.503Z,25.49
2019-06-08T07:18:39.700Z,25.59
2019-06-08T07:19:43.225Z,25.67
2019-06-08T07:20:48.124Z,25.75
2019-06-08T07:21:53.172Z,25.73
2019-06-08T07:22:59.023Z,25.81
2019-06-08T07:24:02.753Z,25.89
2019-06-08T07:25:07.888Z,26.02
2019-06-08T07:26:13.148Z,26.09
2019-06-08T07:27:17.372Z,26.17
2019-06-08T07:28:20.957Z,26.24
2019-06-08T07:29:25.190Z,26.33
2019-06-08T07:30:28.847Z,26.40
2019-06-08T07:31:33.087Z,26.50
2019-06-08T07:32:36.590Z,26.54
2019-06-08T07:33:41.126Z,26.41
2019-06-08T07:34:44.806Z,26.35
2019-06-08T07:35:49.970Z,26.42
2019-06-08T07:36:55.539Z,26.53
2019-06-08T07:37:59.917Z,26.51
2019-06-08T07:39:03.711Z,26.62
2019-06-08T07:40:09.464Z,26.73
2019-06-08T07:41:13.482Z,26.92
2019-06-08T07:42:17.634Z,27.09
2019-06-08T07:43:21.270Z,27.22
2019-06-08T07:44:25.497Z,27.00
2019-06-08T07:45:29.238Z,26.82
2019-06-08T07:46:33.471Z,26.98
2019-06-08T07:47:37.098Z,27.14
2019-06-08T07:48:41.354Z,27.30
2019-06-08T07:49:44.920Z,27.30
2019-06-08T07:50:50.261Z,27.19
2019-06-08T07:52:03.239Z,27.28
2019-06-08T07:52:59.719Z,27.54
2019-06-08T07:54:03.547Z,27.74
2019-06-08T07:55:07.855Z,27.91
2019-06-08T07:56:11.498Z,28.05
2019-06-08T07:57:15.708Z,28.04
2019-06-08T07:58:19.396Z,28.12
2019-06-08T07:59:23.465Z,28.31
2019-06-08T08:00:27.110Z,28.51
2019-06-08T08:01:36.056Z,28.70
2019-06-08T08:02:36.706Z,28.90
2019-06-08T08:03:40.953Z,29.02
2019-06-08T08:04:44.594Z,29.13
2019-06-08T08:05:48.733Z,29.15
2019-06-08T08:06:52.534Z,29.16
2019-06-08T08:07:56.944Z,29.29
2019-06-08T08:09:00.548Z,29.44
2019-06-08T08:10:07.646Z,29.35
2019-06-08T08:11:11.339Z,29.47
2019-06-08T08:12:15.504Z,29.68
2019-06-08T08:13:19.154Z,29.84
2019-06-08T08:14:23.272Z,29.86
2019-06-08T08:15:26.919Z,29.78
2019-06-08T08:16:30.993Z,29.86
2019-06-08T08:17:34.640Z,30.08
2019-06-08T08:18:38.850Z,30.23
2019-06-08T08:19:42.563Z,30.25
2019-06-08T08:20:46.771Z,30.24
2019-06-08T08:21:52.958Z,30.33
2019-06-08T08:23:02.172Z,30.51
2019-06-08T08:24:01.899Z,30.72
2019-06-08T08:25:08.215Z,30.82
2019-06-08T08:26:12.085Z,30.78
2019-06-08T08:27:17.899Z,30.97
2019-06-08T08:28:21.883Z,31.14
2019-06-08T08:29:28.246Z,31.37
2019-06-08T08:30:31.583Z,31.60
2019-06-08T08:31:37.413Z,31.66
2019-06-08T08:32:41.094Z,31.80
2019-06-08T08:33:45.337Z,31.94
2019-06-08T08:34:50.378Z,32.02
2019-06-08T08:35:55.576Z,32.11
2019-06-08T08:37:05.792Z,32.19
2019-06-08T08:38:07.611Z,32.32
2019-06-08T08:39:10.881Z,32.35
2019-06-08T08:40:15.060Z,32.48
2019-06-08T08:41:18.746Z,32.48
2019-06-08T08:42:22.950Z,32.37
2019-06-08T08:43:28.041Z,32.41
2019-06-08T08:44:32.465Z,32.46
2019-06-08T08:45:37.360Z,32.27
2019-06-08T08:46:41.802Z,32.32
2019-06-08T08:47:45.502Z,32.29
2019-06-08T08:48:50.949Z,32.36
2019-06-08T08:49:56.761Z,32.45
2019-06-08T08:51:03.524Z,32.47
2019-06-08T08:52:08.814Z,32.38
2019-06-08T08:53:17.888Z,32.46
2019-06-08T08:54:18.626Z,32.43
2019-06-08T08:55:27.943Z,32.29
2019-06-08T08:56:31.452Z,32.29
2019-06-08T08:57:38.582Z,32.38
2019-06-08T08:58:43.860Z,32.35
2019-06-08T08:59:51.835Z,32.27
2019-06-08T09:00:54.103Z,32.31
2019-06-08T09:02:01.596Z,32.37
2019-06-08T09:03:24.006Z,32.37
2019-06-08T09:04:14.233Z,32.46
2019-06-08T09:05:18.227Z,32.53
2019-06-08T09:06:23.843Z,32.53
2019-06-08T09:07:27.871Z,32.63
2019-06-08T09:08:32.036Z,32.58
2019-06-08T09:09:38.426Z,32.41
2019-06-08T09:10:41.649Z,32.46
2019-06-08T09:11:48.106Z,32.59
2019-06-08T09:12:52.246Z,32.60
2019-06-08T09:14:05.141Z,32.43
2019-06-08T09:15:05.168Z,32.53
2019-06-08T09:16:08.794Z,32.63
2019-06-08T09:17:12.934Z,32.69
2019-06-08T09:18:18.622Z,32.68
2019-06-08T09:19:22.556Z,32.77
2019-06-08T09:20:28.587Z,32.69
2019-06-08T09:21:32.057Z,32.37
2019-06-08T09:22:50.244Z,32.43
2019-06-08T09:23:44.597Z,32.56
2019-06-08T09:24:48.665Z,32.63
2019-06-08T09:26:01.355Z,32.57
2019-06-08T09:27:04.015Z,32.71
2019-06-08T09:28:09.366Z,32.79
2019-06-08T09:29:12.992Z,32.81
2019-06-08T09:30:18.236Z,32.83
2019-06-08T09:31:22.181Z,32.90
2019-06-08T09:32:28.192Z,33.05
2019-06-08T09:35:04.796Z,33.22
2019-06-08T09:36:08.582Z,33.30
2019-06-08T09:37:12.829Z,33.37
2019-06-08T09:38:18.535Z,33.48
2019-06-08T09:39:22.356Z,33.43
2019-06-08T09:40:28.433Z,33.08
2019-06-08T09:41:31.917Z,32.95
2019-06-08T09:42:35.562Z,32.96
2019-06-08T09:43:39.790Z,33.09
2019-06-08T09:44:43.403Z,33.23
2019-06-08T09:45:48.345Z,33.41
2019-06-08T09:46:53.572Z,33.54
2019-06-08T09:48:01.825Z,33.48
2019-06-08T09:49:06.502Z,33.30
2019-06-08T09:50:09.992Z,33.50
2019-06-08T09:51:13.539Z,33.49
2019-06-08T09:52:18.387Z,33.48
2019-06-08T09:53:31.916Z,33.68
2019-06-08T09:54:29.479Z,33.92
2019-06-08T09:55:33.101Z,34.03
2019-06-08T09:56:37.958Z,34.15
2019-06-08T09:57:41.622Z,34.23
2019-06-08T09:58:45.796Z,34.27
2019-06-08T09:59:49.347Z,34.40
2019-06-08T10:00:55.075Z,34.46
2019-06-08T10:02:05.074Z,34.18
2019-06-08T10:03:07.162Z,34.16
2019-06-08T10:04:10.927Z,34.13
2019-06-08T10:05:18.301Z,34.07
2019-06-08T10:06:21.367Z,34.18
2019-06-08T10:07:25.442Z,34.35
2019-06-08T10:08:29.166Z,34.36
2019-06-08T10:09:33.342Z,34.14
2019-06-08T10:10:36.995Z,34.27
2019-06-08T10:11:41.173Z,34.36
2019-06-08T10:12:44.831Z,34.46
2019-06-08T10:13:49.006Z,34.66
2019-06-08T10:14:52.661Z,34.84
2019-06-08T10:16:00.013Z,35.03
2019-06-08T10:17:03.921Z,35.23
2019-06-08T10:18:08.308Z,35.12
2019-06-08T10:19:12.048Z,34.97
2019-06-08T10:20:18.488Z,34.86
2019-06-08T10:21:22.731Z,35.00
2019-06-08T10:22:28.283Z,34.87
2019-06-08T10:23:34.483Z,34.91
2019-06-08T10:24:38.776Z,34.91
2019-06-08T10:25:43.263Z,34.88
2019-06-08T10:26:47.855Z,35.02
2019-06-08T10:27:51.628Z,35.21
2019-06-08T10:28:58.686Z,35.33
2019-06-08T10:30:03.232Z,35.32
2019-06-08T10:31:07.425Z,35.25
2019-06-08T10:32:12.741Z,35.13
2019-06-08T10:33:18.410Z,35.19
2019-06-08T10:34:22.310Z,35.26
2019-06-08T10:35:28.359Z,35.20
2019-06-08T10:36:32.351Z,35.15
2019-06-08T10:37:38.413Z,35.24
2019-06-08T10:38:42.365Z,35.21
2019-06-08T10:39:47.843Z,35.18
2019-06-08T10:41:06.858Z,35.06
2019-06-08T10:42:09.808Z,35.00
2019-06-08T10:43:12.442Z,34.84
2019-06-08T10:44:18.307Z,34.86
2019-06-08T10:45:22.295Z,35.01
2019-06-08T10:46:26.519Z,35.13
2019-06-08T10:47:30.514Z,35.18
2019-06-08T10:48:37.493Z,35.27
2019-06-08T10:49:40.484Z,35.30
2019-06-08T10:50:44.607Z,35.25
2019-06-08T10:51:48.891Z,35.06
2019-06-08T10:52:53.328Z,35.18
2019-06-08T10:53:57.977Z,35.19
2019-06-08T10:55:04.857Z,35.28
2019-06-08T10:56:10.416Z,35.32
2019-06-08T10:57:13.643Z,35.40
2019-06-08T10:58:19.490Z,35.59
2019-06-08T10:59:23.796Z,35.59
2019-06-08T11:00:28.234Z,35.53
2019-06-08T11:01:32.678Z,35.57
2019-06-08T11:02:37.573Z,35.61
2019-06-08T11:03:42.264Z,35.77
2019-06-08T11:04:48.310Z,35.71
2019-06-08T11:05:51.877Z,35.63
2019-06-08T11:06:58.035Z,35.50
2019-06-08T11:08:02.922Z,35.48
2019-06-08T11:09:12.610Z,35.56
2019-06-08T11:10:13.559Z,35.68
2019-06-08T11:11:19.825Z,35.76
2019-06-08T11:12:23.458Z,35.73
2019-06-08T11:13:28.309Z,35.70
2019-06-08T11:14:32.723Z,35.78
2019-06-08T11:15:37.834Z,35.88
2019-06-08T11:16:42.339Z,36.02
2019-06-08T11:17:45.915Z,36.27
2019-06-08T11:18:51.133Z,36.08
2019-06-08T11:19:54.804Z,36.03
2019-06-08T11:21:00.511Z,36.00
2019-06-08T11:22:07.707Z,36.14
2019-06-08T11:23:12.334Z,36.18
2019-06-08T11:24:23.502Z,36.12
2019-06-08T11:25:21.661Z,36.21
2019-06-08T11:26:28.916Z,36.20
2019-06-08T11:27:33.314Z,36.35
2019-06-08T11:28:38.288Z,36.27
2019-06-08T11:29:42.612Z,36.27
2019-06-08T11:30:48.060Z,36.45
2019-06-08T11:31:52.113Z,36.69
2019-06-08T11:32:57.709Z,36.90
2019-06-08T11:34:06.166Z,37.07
2019-06-08T11:35:12.337Z,37.22
2019-06-08T11:36:18.603Z,37.20
2019-06-08T11:37:21.547Z,37.13
2019-06-08T11:38:28.705Z,37.14
2019-06-08T11:39:30.985Z,37.12
2019-06-08T11:40:37.782Z,37.12
2019-06-08T11:41:40.689Z,37.32
2019-06-08T11:42:45.486Z,37.49
2019-06-08T11:43:49.142Z,37.66
2019-06-08T11:44:53.587Z,37.77
2019-06-08T11:45:58.409Z,37.82
2019-06-08T11:47:04.574Z,37.92
2019-06-08T11:48:08.763Z,38.10
2019-06-08T11:49:14.982Z,38.32
2019-06-08T11:50:24.494Z,38.20
2019-06-08T11:51:29.828Z,38.15
2019-06-08T11:52:33.601Z,38.14
2019-06-08T11:53:38.433Z,38.02
2019-06-08T11:54:42.244Z,37.87
2019-06-08T11:55:50.753Z,37.80
2019-06-08T11:56:53.909Z,37.64
2019-06-08T11:57:58.629Z,37.58
2019-06-08T11:59:03.347Z,37.60
2019-06-08T12:00:22.365Z,37.86
2019-06-08T12:01:18.364Z,37.99
2019-06-08T12:02:21.725Z,38.15
2019-06-08T12:03:27.671Z,38.21
2019-06-08T12:04:31.636Z,38.22
2019-06-08T12:05:35.261Z,38.26
2019-06-08T12:06:43.060Z,37.99
2019-06-08T12:07:48.039Z,37.73
2019-06-08T12:08:52.301Z,37.49
2019-06-08T12:09:57.905Z,37.31
2019-06-08T12:11:03.783Z,37.37
2019-06-08T12:12:12.283Z,37.43
2019-06-08T12:13:18.217Z,37.58
2019-06-08T12:14:22.037Z,37.60
2019-06-08T12:15:28.168Z,37.65
2019-06-08T12:16:31.664Z,37.69
2019-06-08T12:17:35.804Z,37.79
2019-06-08T12:18:40.394Z,37.79
2019-06-08T12:19:44.771Z,37.72
2019-06-08T12:20:48.957Z,37.66
2019-06-08T12:21:53.330Z,37.56
2019-06-08T12:22:56.889Z,37.53
2019-06-08T12:24:01.115Z,37.50
2019-06-08T12:25:08.029Z,37.50
2019-06-08T12:26:12.391Z,37.51
2019-06-08T12:27:29.184Z,37.45
2019-06-08T12:28:22.033Z,37.39
2019-06-08T12:29:25.603Z,37.33
2019-06-08T12:30:29.882Z,37.43
2019-06-08T12:31:33.436Z,37.58
2019-06-08T12:32:37.607Z,37.54
2019-06-08T12:33:41.192Z,37.72
2019-06-08T12:34:45.683Z,37.79
2019-06-08T12:35:49.355Z,37.76
2019-06-08T12:36:53.562Z,37.77
2019-06-08T12:37:58.098Z,37.83
2019-06-08T12:39:02.556Z,37.89
2019-06-08T12:40:09.739Z,37.87
2019-06-08T12:41:14.074Z,37.89
2019-06-08T12:42:24.250Z,37.68
2019-06-08T12:43:24.292Z,37.60
2019-06-08T12:44:29.133Z,37.41
2019-06-08T12:45:33.890Z,37.40
2019-06-08T12:46:38.374Z,37.42
2019-06-08T12:47:43.643Z,37.34
2019-06-08T12:48:47.199Z,37.26
2019-06-08T12:49:51.474Z,37.23
2019-06-08T12:50:55.099Z,37.39
2019-06-08T12:51:59.666Z,37.59
2019-06-08T12:53:03.349Z,37.70
2019-06-08T12:54:08.438Z,37.62
2019-06-08T12:55:18.337Z,37.39
2019-06-08T12:56:23.825Z,37.44
2019-06-08T12:57:24.561Z,37.42
2019-06-08T12:58:28.759Z,37.57
2019-06-08T12:59:32.331Z,37.64
2019-06-08T13:00:37.995Z,37.71
2019-06-08T13:01:41.749Z,37.82
2019-06-08T13:02:47.778Z,37.77
2019-06-08T13:03:52.405Z,37.80
2019-06-08T13:04:56.551Z,37.79
2019-06-08T13:06:00.263Z,37.65
2019-06-08T13:07:04.483Z,37.56
2019-06-08T13:08:10.057Z,37.50
2019-06-08T13:09:14.768Z,37.51
2019-06-08T13:10:23.903Z,37.44
2019-06-08T13:11:28.081Z,37.52
2019-06-08T13:12:31.252Z,37.44
2019-06-08T13:13:37.630Z,37.44
2019-06-08T13:14:41.019Z,37.52
2019-06-08T13:15:45.247Z,37.43
2019-06-08T13:16:52.001Z,37.47
2019-06-08T13:17:54.748Z,37.33
2019-06-08T13:18:58.796Z,37.44
2019-06-08T13:20:03.047Z,37.44
2019-06-08T13:21:22.223Z,37.48
2019-06-08T13:22:28.968Z,37.38
2019-06-08T13:23:34.739Z,37.13
2019-06-08T13:24:40.483Z,37.17
2019-06-08T13:25:48.487Z,37.26
2019-06-08T13:26:52.976Z,37.32
2019-06-08T13:27:58.295Z,37.31
2019-06-08T13:29:02.733Z,37.11
2019-06-08T13:30:07.526Z,37.13
2019-06-08T13:31:14.309Z,37.06
2019-06-08T13:32:18.977Z,37.05
2019-06-08T13:33:27.922Z,37.14
2019-06-08T13:34:30.975Z,37.32
2019-06-08T13:35:35.220Z,37.36
2019-06-08T13:36:42.211Z,37.53
2019-06-08T13:37:48.129Z,37.64
2019-06-08T13:38:52.150Z,37.65
2019-06-08T13:39:59.042Z,37.51
2019-06-08T13:41:01.896Z,37.43
2019-06-08T13:42:07.751Z,37.36
2019-06-08T13:43:11.546Z,37.27
2019-06-08T13:44:15.739Z,37.29
2019-06-08T13:45:21.655Z,37.24
2019-06-08T13:46:27.940Z,37.27
2019-06-08T13:47:31.137Z,37.34
2019-06-08T13:48:37.528Z,37.51
2019-06-08T13:49:40.958Z,37.63
2019-06-08T13:50:46.583Z,37.46
2019-06-08T13:51:51.153Z,37.39
2019-06-08T13:52:55.363Z,37.29
2019-06-08T13:53:59.044Z,37.10
2019-06-08T13:55:03.406Z,37.22